Weather History for Bradford, PA

Change the Weather History Date:

Friday, February 1, 2013

  Actual Average Record
Temperature  
Mean Temperature 12 °F 22 °F  
Max Temperature 17 °F 30 °F 58 °F (2002)
Min Temperature 7 °F 14 °F -10 °F (1971)
Degree Days  
Heating Degree Days 52 38  
Month to date heating degree days 38  
Since 1 July heating degree days 4449  
Cooling Degree Days 0 0  
Month to date cooling degree days 0  
Year to date cooling degree days 0  
Moisture  
Dew Point 6 °F    
Average Humidity 70    
Maximum Humidity 81    
Minimum Humidity 57    
Precipitation  
Precipitation 0.00 in 0.08 in 0.88 in (1986)
Month to date precipitation 0.08  
Year to date precipitation 3.37  
Sea Level Pressure  
Sea Level Pressure 29.92 in    
Wind  
Wind Speed 12 mph (West)    
Max Wind Speed 22 mph    
Max Gust Speed 38 mph    
Visibility 4 miles    
Events Snow    
T = Trace of Precipitation, MM = Missing Value Source: NWS Daily Summary

Daily Weather History Graph

Daily Weather History Graph

Search for Another Location

Airport:

Trip Planner

Search our weather history database for the weather conditions in past years. The results will help you decide how hot, cold, wet, or windy it might be!

Date:

Astronomy

Feb. 01, 2013 Rise Set
Actual Time 7:26 AM EST 5:30 PM EST
Civil Twilight 6:57 AM EST 5:59 PM EST
Nautical Twilight 6:23 AM EST 6:33 PM EST
Astronomical Twilight 5:51 AM EST 7:05 PM EST
Moon 11:42 PM EST 9:52 AM EST
Length of Visible Light 11h 02m
Length of Day
10h 03m
Waning Gibbous, 70% of the Moon is Illuminated
Feb 1
Waning Gibbous
Feb 3
Last Quarter
Feb 10
New
Feb 17
First Quarter
Feb 25
Full

Hourly Weather History & Observations

Time (EST) Temp. Windchill Dew Point Humidity Pressure Visibility Wind Dir Wind Speed Gust Speed Precip Events Conditions
12:10 AM 16.0 °F 2.3 °F 8.1 °F 71% 29.67 in 8.0 mi West 12.7 mph 20.7 mph 0.00 in Snow Light Snow
12:28 AM 16.0 °F 4.4 °F 8.1 °F 71% 29.67 in 6.0 mi West 9.2 mph 18.4 mph 0.00 in Snow Light Snow
1:53 AM 15.1 °F 4.2 °F 9.0 °F 77% 29.75 in 2.0 mi WSW 8.1 mph - 0.00 in Snow Light Snow
2:11 AM 15.1 °F 2.5 °F 7.0 °F 70% 29.64 in 6.0 mi West 10.4 mph 21.9 mph 0.00 in Snow Light Snow
2:53 AM 15.1 °F 3.3 °F 7.0 °F 70% 29.75 in 9.0 mi West 9.2 mph 16.1 mph 0.00 in   Overcast
3:04 AM 15.1 °F 3.3 °F 7.0 °F 70% 29.67 in 7.0 mi West 9.2 mph - 0.00 in Snow Light Snow
3:16 AM 15.1 °F 5.2 °F 8.1 °F 74% 29.67 in 7.0 mi West 6.9 mph - 0.00 in Snow Light Snow
3:42 AM 15.1 °F 6.4 °F 9.0 °F 77% 29.68 in 1.8 mi WSW 5.8 mph - 0.00 in Snow Light Snow
3:49 AM 14.0 °F 5.1 °F 8.6 °F 79% 29.68 in 0.8 mi Variable 5.8 mph - 0.00 in Snow Light Snow
3:53 AM 14.0 °F 6.5 °F 9.0 °F 80% 29.77 in 0.8 mi West 4.6 mph - 0.00 in Snow Light Snow
4:05 AM 14.0 °F 2.9 °F 9.0 °F 80% 29.68 in 0.8 mi West 8.1 mph - 0.00 in Snow Light Snow
4:09 AM 14.0 °F 3.9 °F 9.0 °F 80% 29.68 in 1.0 mi Variable 6.9 mph - 0.00 in Snow Light Snow
4:26 AM 14.0 °F 5.1 °F 9.0 °F 80% 29.68 in 0.8 mi West 5.8 mph - 0.00 in Snow Light Snow
4:50 AM 14.0 °F -2.5 °F 8.6 °F 79% 29.69 in 1.2 mi WNW 17.3 mph 25.3 mph 0.00 in Snow Light Snow
4:53 AM 14.0 °F -0.8 °F 7.0 °F 74% 29.79 in 1.5 mi West 13.8 mph 25.3 mph 0.00 in Snow Light Snow
4:57 AM 14.0 °F 1.2 °F 7.0 °F 74% 29.70 in 3.0 mi WNW 10.4 mph 25.3 mph 0.00 in Snow Light Snow
5:22 AM 14.0 °F -1.4 °F 6.1 °F 71% 29.71 in 6.0 mi West 15.0 mph - 0.00 in Snow Light Snow
5:48 AM 12.2 °F 1.7 °F 6.8 °F 79% 29.73 in 2.5 mi West 6.9 mph - 0.00 in Snow Light Snow
5:53 AM 12.9 °F -1.6 °F 7.0 °F 77% 29.83 in 2.0 mi WNW 12.7 mph 17.3 mph 0.00 in Snow Light Snow
6:03 AM 14.0 °F 1.2 °F 7.0 °F 74% 29.74 in 7.0 mi West 10.4 mph - 0.00 in Snow Light Snow
6:20 AM 14.0 °F -0.8 °F 6.1 °F 71% 29.75 in 8.0 mi West 13.8 mph - 0.00 in Snow Light Snow
6:38 AM 14.0 °F 0.5 °F 6.1 °F 71% 29.76 in 3.0 mi West 11.5 mph 24.2 mph 0.00 in Snow Light Snow
6:53 AM 14.0 °F 1.2 °F 6.1 °F 71% 29.87 in 5.0 mi West 10.4 mph 21.9 mph 0.00 in Snow Light Snow
7:01 AM 14.0 °F 2.0 °F 6.1 °F 71% 29.77 in 5.0 mi West 9.2 mph 17.3 mph 0.00 in Snow Light Snow
7:10 AM 12.9 °F -0.9 °F 7.0 °F 77% 29.78 in 1.8 mi West 11.5 mph 19.6 mph 0.00 in Snow Light Snow
7:29 AM 12.9 °F 0.7 °F 7.0 °F 77% 29.79 in 2.0 mi West 9.2 mph 20.7 mph 0.00 in Snow Light Snow
7:41 AM 12.9 °F 1.6 °F 7.0 °F 77% 29.80 in 1.5 mi West 8.1 mph 19.6 mph 0.00 in Snow Light Snow
7:53 AM 12.9 °F -0.2 °F 7.0 °F 77% 29.91 in 1.2 mi West 10.4 mph - 0.00 in Snow Light Snow
8:46 AM 12.9 °F 1.6 °F 8.1 °F 81% 29.84 in 0.5 mi West 8.1 mph - 0.00 in Snow Snow
8:53 AM 14.0 °F -2.0 °F 7.0 °F 74% 29.94 in 1.0 mi West 16.1 mph 21.9 mph 0.00 in Snow Light Snow
9:37 AM 14.0 °F 2.0 °F 8.1 °F 77% 29.86 in 0.8 mi West 9.2 mph 20.7 mph 0.00 in Snow Light Snow
9:46 AM 15.1 °F -1.1 °F 8.1 °F 74% 29.86 in 1.0 mi West 17.3 mph 24.2 mph 0.00 in Snow Light Snow
10:03 AM 15.1 °F -1.1 °F 6.1 °F 68% 29.87 in 3.0 mi West 17.3 mph 27.6 mph 0.00 in Snow Light Snow
10:51 AM 15.8 °F -1.9 °F 5.0 °F 62% 29.89 in 2.5 mi West 21.9 mph 32.2 mph 0.00 in   Overcast
10:53 AM 16.0 °F -0.9 °F 5.0 °F 62% 29.99 in 2.5 mi West 19.6 mph 32.2 mph 0.00 in Snow Light Snow
11:01 AM 16.0 °F -0.9 °F 3.9 °F 59% 29.89 in 3.0 mi West 19.6 mph 31.1 mph 0.00 in   Overcast
11:21 AM 16.0 °F 2.9 °F 6.1 °F 65% 29.90 in 2.5 mi West 11.5 mph 25.3 mph 0.00 in Snow Light Snow
11:29 AM 16.0 °F 2.3 °F 6.1 °F 65% 29.89 in 3.0 mi WNW 12.7 mph 23.0 mph 0.00 in Snow Light Snow
11:32 AM 17.1 °F 2.5 °F 7.0 °F 65% 29.89 in 2.5 mi WNW 15.0 mph - 0.00 in Snow Light Snow
11:53 AM 16.0 °F 0.6 °F 5.0 °F 62% 30.00 in 4.0 mi WNW 16.1 mph 27.6 mph 0.00 in Snow Light Snow
12:00 PM 16.0 °F 1.7 °F 5.0 °F 62% 29.90 in 2.5 mi West 13.8 mph 25.3 mph 0.00 in Snow Light Snow
12:05 PM 17.1 °F 1.5 °F 5.0 °F 59% 29.90 in 1.5 mi West 17.3 mph 25.3 mph 0.00 in Snow Light Snow
12:14 PM 16.0 °F 1.7 °F 8.1 °F 71% 29.91 in 0.5 mi WNW 13.8 mph 27.6 mph 0.00 in Snow Snow
12:25 PM 17.1 °F -0.3 °F 7.0 °F 65% 29.91 in 1.5 mi West 21.9 mph 31.1 mph 0.00 in Snow Light Snow
12:51 PM 15.8 °F -0.6 °F 6.8 °F 68% 29.92 in 0.8 mi West 18.4 mph 27.6 mph 0.00 in Snow Light Snow
12:53 PM 16.0 °F 1.1 °F 7.0 °F 68% 30.02 in 0.5 mi West 15.0 mph 27.6 mph 0.00 in Snow Snow
1:07 PM 15.1 °F -2.9 °F 8.1 °F 74% 29.93 in 0.2 mi West 21.9 mph 31.1 mph 0.00 in Snow Heavy Snow
1:19 PM 15.1 °F 0.5 °F 9.0 °F 77% 29.93 in 0.2 mi West 13.8 mph 21.9 mph 0.00 in Snow Heavy Snow
1:24 PM 15.1 °F 3.3 °F 9.0 °F 77% 29.93 in 0.5 mi West 9.2 mph - 0.00 in Snow Snow
1:33 PM 16.0 °F -0.4 °F 8.1 °F 71% 29.93 in 2.0 mi West 18.4 mph 29.9 mph 0.00 in Snow Light Snow
1:41 PM 17.1 °F 1.0 °F 7.0 °F 65% 29.93 in 1.5 mi West 18.4 mph 29.9 mph 0.00 in Snow Light Snow
1:53 PM 17.1 °F 0.1 °F 8.1 °F 68% 30.03 in 1.0 mi West 20.7 mph 27.6 mph 0.00 in Snow Light Snow
2:08 PM 16.0 °F 2.9 °F 7.0 °F 68% 29.94 in 3.0 mi West 11.5 mph 24.2 mph 0.00 in Snow Light Snow
2:13 PM 16.0 °F 1.1 °F 8.1 °F 71% 29.94 in 1.8 mi West 15.0 mph 21.9 mph 0.00 in Snow Light Snow
2:22 PM 16.0 °F 0.6 °F 7.0 °F 68% 29.94 in 1.8 mi West 16.1 mph 25.3 mph 0.00 in Snow Light Snow
2:28 PM 17.1 °F -0.3 °F 6.1 °F 62% 29.94 in 3.0 mi West 21.9 mph 36.8 mph 0.00 in Snow Light Snow
2:33 PM 16.0 °F -0.9 °F 3.9 °F 59% 29.95 in 1.5 mi West 19.6 mph 36.8 mph 0.00 in   Overcast
2:42 PM 16.0 °F -0.4 °F 3.9 °F 59% 29.95 in 0.8 mi WNW 18.4 mph 31.1 mph 0.00 in Snow Light Snow
2:53 PM 16.0 °F 1.1 °F 6.1 °F 65% 30.06 in 1.2 mi WNW 15.0 mph 26.5 mph 0.00 in Snow Light Snow
2:58 PM 16.0 °F 1.7 °F 6.1 °F 65% 29.96 in 3.0 mi West 13.8 mph 26.5 mph 0.00 in Snow Light Snow
3:09 PM 16.0 °F -0.9 °F 5.0 °F 62% 29.96 in 1.5 mi WNW 19.6 mph 27.6 mph 0.00 in Snow Light Snow
3:28 PM 15.1 °F -0.6 °F 3.9 °F 61% 29.98 in 0.8 mi West 16.1 mph 38.0 mph 0.00 in Snow Light Snow
3:33 PM 16.0 °F 2.9 °F 3.9 °F 59% 29.98 in 1.0 mi WNW 11.5 mph 26.5 mph 0.00 in Snow Light Snow
3:37 PM 16.0 °F 1.1 °F 3.0 °F 57% 29.98 in 3.0 mi West 15.0 mph 26.5 mph 0.00 in Snow Light Snow
3:58 PM 16.0 °F -1.3 °F 5.0 °F 62% 29.99 in 1.8 mi West 20.7 mph 32.2 mph 0.00 in Snow Light Snow
4:22 PM 15.1 °F 1.8 °F 6.1 °F 68% 30.00 in 3.0 mi West 11.5 mph 19.6 mph 0.00 in Snow Light Snow
4:36 PM 15.1 °F 2.5 °F 6.1 °F 68% 30.00 in 2.0 mi West 10.4 mph 21.9 mph 0.00 in Snow Light Snow
4:39 PM 14.0 °F 2.0 °F 6.1 °F 71% 30.00 in 3.0 mi West 9.2 mph 21.9 mph 0.00 in Snow Light Snow
4:53 PM 14.0 °F 2.0 °F 7.0 °F 74% 30.12 in 3.0 mi West 9.2 mph - 0.00 in Snow Light Snow
4:57 PM 14.0 °F -1.4 °F 6.1 °F 71% 30.01 in 2.0 mi West 15.0 mph 20.7 mph 0.00 in Snow Light Snow
5:04 PM 14.0 °F 0.5 °F 6.1 °F 71% 30.01 in 1.2 mi West 11.5 mph 20.7 mph 0.00 in Snow Light Snow
5:21 PM 14.0 °F 0.5 °F 7.0 °F 74% 30.02 in 0.8 mi West 11.5 mph 19.6 mph 0.00 in Snow Light Snow
5:32 PM 14.0 °F 1.2 °F 6.1 °F 71% 30.02 in 1.0 mi West 10.4 mph 19.6 mph 0.00 in Snow Light Snow
5:49 PM 12.2 °F -2.5 °F 5.0 °F 73% 30.03 in 3.0 mi West 12.7 mph - 0.00 in Snow Light Snow
5:53 PM 12.9 °F -1.6 °F 5.0 °F 71% 30.15 in 4.0 mi West 12.7 mph - 0.00 in Snow Light Snow
6:03 PM 12.9 °F -0.9 °F 5.0 °F 71% 30.04 in 1.8 mi West 11.5 mph 23.0 mph 0.00 in Snow Light Snow
6:08 PM 12.9 °F -2.2 °F 3.9 °F 67% 30.04 in 3.0 mi West 13.8 mph 23.0 mph 0.00 in Snow Light Snow
6:16 PM 12.0 °F -2.0 °F 3.0 °F 67% 30.05 in 6.0 mi West 11.5 mph 26.5 mph 0.00 in   Overcast
6:30 PM 12.0 °F -3.4 °F 3.0 °F 67% 30.05 in 5.0 mi West 13.8 mph 21.9 mph 0.00 in   Overcast
6:53 PM 10.9 °F -4.1 °F 1.9 °F 67% 30.17 in 10.0 mi West 12.7 mph 25.3 mph 0.00 in   Overcast
7:04 PM 10.9 °F 1.4 °F 1.9 °F 67% 30.07 in 10.0 mi Variable 5.8 mph - N/A   Overcast
7:12 PM 10.9 °F -0.8 °F 1.9 °F 67% 30.07 in 10.0 mi West 8.1 mph - N/A   Overcast
7:43 PM 10.9 °F -1.8 °F 1.0 °F 64% 30.08 in 10.0 mi West 9.2 mph - N/A   Overcast
7:53 PM 10.9 °F -2.6 °F 1.0 °F 64% 30.20 in 9.0 mi West 10.4 mph 20.7 mph N/A   Overcast
8:25 PM 10.9 °F -2.6 °F 1.0 °F 64% 30.09 in 5.0 mi WSW 10.4 mph 19.6 mph 0.00 in Snow Light Snow
8:53 PM 10.0 °F -2.9 °F 1.0 °F 67% 30.21 in 10.0 mi WSW 9.2 mph - 0.00 in   Overcast
9:02 PM 10.0 °F -1.9 °F -0.0 °F 64% 30.10 in 10.0 mi WSW 8.1 mph - N/A   Overcast
9:45 PM 9.0 °F -2.2 °F -0.0 °F 67% 30.10 in 10.0 mi WSW 6.9 mph - N/A   Overcast
9:53 PM 9.0 °F -2.2 °F -0.0 °F 67% 30.23 in 10.0 mi Variable 6.9 mph 16.1 mph N/A   Overcast
10:53 PM 8.1 °F -3.2 °F -0.0 °F 70% 30.24 in 10.0 mi WSW 6.9 mph - N/A   Mostly Cloudy
11:03 PM 8.1 °F -2.0 °F -0.0 °F 70% 30.12 in 10.0 mi West 5.8 mph - N/A   Scattered Clouds
11:53 PM 7.0 °F -1.7 °F -0.0 °F 73% 30.24 in 10.0 mi Variable 4.6 mph - N/A   Clear